Valenca do Piaui, Brazil
Current Conditions -  °F | °C
As of 1:00 PM on Thursday 29 Jan 2015 (Local Time) from SBTE Reporting Station
Scattered Clouds Scattered Clouds  
Wind Chill: 91°   Ceiling: Unl
Heat Index: 95°   Visibility: 6mi
Dew Point: 68°   Wind: 5mph
Humidity: 46%   Direction: 230°SW
Pressure: 29.83"   Gusts: NA
Location:  6.41°S, 41.75°W
Report Text: SBTE 291600Z 23004KT 9999 SCT040 33/20 Q1010
Loading
Personal Weather Stations






























Interactive Weather Map New forecast layout! Learn more

10-Day Weather Forecast

Advertisements
Track Severe Weather on mobile